createdAt,value
2022-12-26T00:03:46.566Z,11.70
2022-12-26T00:08:47.841Z,11.48
2022-12-26T00:13:49.058Z,11.29
2022-12-26T00:18:50.229Z,11.28
2022-12-26T00:23:51.371Z,11.27
2022-12-26T00:28:52.552Z,11.24
2022-12-26T00:33:53.738Z,11.29
2022-12-26T00:38:54.921Z,11.37
2022-12-26T00:43:56.182Z,11.54
2022-12-26T00:48:58.032Z,11.71
2022-12-26T00:53:59.227Z,11.75
2022-12-26T00:59:00.419Z,11.83
2022-12-26T01:04:01.581Z,11.85
2022-12-26T01:09:02.817Z,11.81
2022-12-26T01:14:04.438Z,11.80
2022-12-26T01:19:05.668Z,11.77
2022-12-26T01:24:06.926Z,11.78
2022-12-26T01:29:08.125Z,11.82
2022-12-26T01:34:09.340Z,11.89
2022-12-26T01:39:10.583Z,11.92
2022-12-26T01:44:11.778Z,11.90
2022-12-26T01:49:12.991Z,11.91
2022-12-26T01:54:40.459Z,11.90
2022-12-26T01:59:35.409Z,11.83
2022-12-26T02:04:55.236Z,11.79
2022-12-26T02:09:56.631Z,11.77
2022-12-26T02:14:57.842Z,11.81
2022-12-26T02:19:59.260Z,11.83
2022-12-26T02:25:00.496Z,11.83
2022-12-26T02:30:01.708Z,11.78
2022-12-26T02:35:02.952Z,11.73
2022-12-26T02:40:04.151Z,11.71
2022-12-26T02:45:24.115Z,11.73
2022-12-26T02:50:44.138Z,11.77
2022-12-26T02:56:03.823Z,11.77
2022-12-26T03:01:23.685Z,11.78
2022-12-26T03:06:43.816Z,11.77
2022-12-26T03:12:03.599Z,11.75
2022-12-26T03:17:19.885Z,11.64
2022-12-26T03:22:33.324Z,11.67
2022-12-26T03:27:34.484Z,11.65
2022-12-26T03:32:35.626Z,11.66
2022-12-26T03:37:48.889Z,11.68
2022-12-26T03:43:09.940Z,11.51
2022-12-26T03:48:29.731Z,11.23
2022-12-26T03:53:49.436Z,11.02
2022-12-26T03:59:09.354Z,10.91
2022-12-26T04:04:29.449Z,10.81
2022-12-26T04:09:49.325Z,10.74
2022-12-26T04:15:09.066Z,10.68
2022-12-26T04:20:10.288Z,10.64
2022-12-26T04:25:48.457Z,10.59
2022-12-26T04:31:10.282Z,10.57
2022-12-26T04:36:30.341Z,10.56
2022-12-26T04:41:50.129Z,10.51
2022-12-26T04:46:51.340Z,10.49
2022-12-26T04:51:52.529Z,10.48
2022-12-26T04:56:53.764Z,10.46
2022-12-26T05:02:13.642Z,10.44
2022-12-26T05:07:33.713Z,10.42
2022-12-26T05:12:34.920Z,10.41
2022-12-26T05:17:54.659Z,10.37
2022-12-26T05:23:14.502Z,10.36
2022-12-26T05:28:34.295Z,10.33
2022-12-26T05:33:54.223Z,10.25
2022-12-26T05:38:56.382Z,10.19
2022-12-26T05:43:57.520Z,10.19
2022-12-26T05:48:58.712Z,10.20
2022-12-26T05:53:59.945Z,10.20
2022-12-26T05:59:01.197Z,10.19
2022-12-26T06:04:02.888Z,10.16
2022-12-26T06:09:04.159Z,10.12
2022-12-26T06:14:05.367Z,10.07
2022-12-26T06:19:06.550Z,10.02
2022-12-26T06:24:07.689Z,9.98
2022-12-26T06:29:08.873Z,9.91
2022-12-26T06:34:10.046Z,9.87
2022-12-26T06:39:11.236Z,9.83
2022-12-26T06:44:17.889Z,9.81
2022-12-26T06:49:19.751Z,9.78
2022-12-26T06:54:20.891Z,9.76
2022-12-26T06:59:22.111Z,9.73
2022-12-26T07:04:23.356Z,9.67
2022-12-26T07:09:28.470Z,9.64
2022-12-26T07:14:34.497Z,9.61
2022-12-26T07:19:35.709Z,9.61
2022-12-26T07:24:37.269Z,9.61
2022-12-26T07:29:38.452Z,9.63
2022-12-26T07:34:39.654Z,9.63
2022-12-26T07:39:40.850Z,9.63
2022-12-26T07:44:42.793Z,9.64
2022-12-26T07:49:44.001Z,9.65
2022-12-26T07:54:45.204Z,9.70
2022-12-26T07:59:46.491Z,9.73
2022-12-26T08:04:47.696Z,9.73
2022-12-26T08:09:48.931Z,9.74
2022-12-26T08:14:50.091Z,9.71
2022-12-26T08:19:51.281Z,9.70
2022-12-26T08:24:52.521Z,9.64
2022-12-26T08:29:53.767Z,9.57
2022-12-26T08:34:54.996Z,9.49
2022-12-26T08:39:56.167Z,9.47
2022-12-26T08:44:57.544Z,9.52
2022-12-26T08:49:58.730Z,9.58
2022-12-26T08:54:59.888Z,9.61
2022-12-26T09:00:01.056Z,9.66
2022-12-26T09:05:02.198Z,9.76
2022-12-26T09:10:04.799Z,9.83
2022-12-26T09:15:05.944Z,9.83
2022-12-26T09:20:07.119Z,9.85
2022-12-26T09:25:08.283Z,9.87
2022-12-26T09:30:09.474Z,9.90
2022-12-26T09:35:10.669Z,9.94
2022-12-26T09:40:13.041Z,9.96
2022-12-26T09:45:14.177Z,9.98
2022-12-26T09:50:15.409Z,9.99
2022-12-26T09:55:16.626Z,10.09
2022-12-26T10:00:17.791Z,10.13
2022-12-26T10:05:18.955Z,10.22
2022-12-26T10:10:20.095Z,10.28
2022-12-26T10:15:21.258Z,10.32
2022-12-26T10:20:22.558Z,10.41
2022-12-26T10:25:26.355Z,10.49
2022-12-26T10:30:30.028Z,10.46
2022-12-26T10:35:31.422Z,10.44
2022-12-26T10:40:32.614Z,10.45
2022-12-26T10:45:33.781Z,10.49
2022-12-26T10:50:34.992Z,10.48
2022-12-26T10:55:36.265Z,10.48
2022-12-26T11:00:37.515Z,10.57
2022-12-26T11:10:59.842Z,10.68
2022-12-26T11:16:00.984Z,10.71
2022-12-26T11:21:03.834Z,10.75
2022-12-26T11:26:07.941Z,10.74
2022-12-26T11:31:09.229Z,10.76
2022-12-26T11:36:10.508Z,10.76
2022-12-26T11:41:31.502Z,10.74
2022-12-26T11:46:32.958Z,10.78
2022-12-26T11:51:34.171Z,10.76
2022-12-26T11:56:35.308Z,10.74
2022-12-26T12:01:36.717Z,10.82
2022-12-26T12:06:38.017Z,10.92
2022-12-26T12:11:39.216Z,11.00
2022-12-26T12:16:40.490Z,10.96
2022-12-26T12:21:42.666Z,10.90
2022-12-26T12:26:45.508Z,10.80
2022-12-26T12:31:49.766Z,10.78
2022-12-26T12:36:50.926Z,10.76
2022-12-26T12:41:52.109Z,10.71
2022-12-26T12:46:53.349Z,10.67
2022-12-26T12:51:54.527Z,10.71
2022-12-26T12:56:55.670Z,10.71
2022-12-26T13:01:56.966Z,10.67
2022-12-26T13:06:58.295Z,10.63
2022-12-26T13:11:59.493Z,10.62
2022-12-26T13:17:00.684Z,10.58
2022-12-26T13:22:01.892Z,10.60
2022-12-26T13:27:03.424Z,10.45
2022-12-26T13:32:04.698Z,10.27
2022-12-26T13:37:05.980Z,10.15
2022-12-26T13:42:25.981Z,9.83
2022-12-26T13:47:27.210Z,9.39
2022-12-26T13:52:28.393Z,9.17
2022-12-26T13:57:29.625Z,9.09
2022-12-26T14:02:58.191Z,9.06
2022-12-26T14:07:54.942Z,9.01
2022-12-26T14:12:56.190Z,8.75
2022-12-26T14:17:57.376Z,8.55
2022-12-26T14:22:58.591Z,8.45
2022-12-26T14:28:00.261Z,8.42
2022-12-26T14:33:01.977Z,8.41
2022-12-26T14:38:03.185Z,8.43
2022-12-26T14:43:10.374Z,8.42
2022-12-26T14:48:11.601Z,8.38
2022-12-26T14:53:12.784Z,8.43
2022-12-26T14:58:14.001Z,8.39
2022-12-26T15:03:15.256Z,8.15
2022-12-26T15:08:16.487Z,8.01
2022-12-26T15:13:17.668Z,7.95
2022-12-26T15:18:18.857Z,7.88
2022-12-26T15:23:19.994Z,7.79
2022-12-26T15:28:21.175Z,7.74
2022-12-26T15:33:22.389Z,7.72
2022-12-26T15:38:23.557Z,7.67
2022-12-26T15:43:24.698Z,7.66
2022-12-26T15:48:25.884Z,7.64
2022-12-26T15:53:27.145Z,7.59
2022-12-26T15:58:28.295Z,7.52
2022-12-26T16:03:29.624Z,7.49
2022-12-26T16:08:30.874Z,7.37
2022-12-26T16:13:32.081Z,7.34
2022-12-26T16:18:33.382Z,7.29
2022-12-26T16:23:34.607Z,7.23
2022-12-26T16:28:35.797Z,7.17
2022-12-26T16:33:36.947Z,7.14
2022-12-26T16:38:38.124Z,7.12
2022-12-26T16:43:39.305Z,7.08
2022-12-26T16:48:40.512Z,7.05
2022-12-26T16:53:41.764Z,7.00
2022-12-26T16:58:43.061Z,6.98
2022-12-26T17:03:44.430Z,6.93
2022-12-26T17:08:45.645Z,6.83
2022-12-26T17:13:46.823Z,6.74
2022-12-26T17:18:48.005Z,6.59
2022-12-26T17:23:49.253Z,6.36
2022-12-26T17:28:50.447Z,6.10
2022-12-26T17:33:51.678Z,5.91
2022-12-26T17:38:52.857Z,5.78
2022-12-26T17:43:54.057Z,5.79
2022-12-26T17:48:56.261Z,5.78
2022-12-26T17:53:57.431Z,5.78
2022-12-26T17:58:58.656Z,5.75
2022-12-26T18:03:59.870Z,5.73
2022-12-26T18:09:01.057Z,5.66
2022-12-26T18:14:02.721Z,5.56
2022-12-26T18:19:03.922Z,5.43
2022-12-26T18:24:05.097Z,5.23
2022-12-26T18:29:06.225Z,5.02
2022-12-26T18:34:07.502Z,4.87
2022-12-26T18:39:08.639Z,4.71
2022-12-26T18:44:09.872Z,4.60
2022-12-26T18:49:11.057Z,4.45
2022-12-26T18:54:12.189Z,4.37
2022-12-26T18:59:13.411Z,4.25
2022-12-26T19:04:14.626Z,4.18
2022-12-26T19:09:15.836Z,4.10
2022-12-26T19:14:17.035Z,4.02
2022-12-26T19:19:18.407Z,4.00
2022-12-26T19:24:19.574Z,3.99
2022-12-26T19:29:20.782Z,3.93
2022-12-26T19:34:23.129Z,3.87
2022-12-26T19:39:24.413Z,3.83
2022-12-26T19:44:25.714Z,3.78
2022-12-26T19:49:33.420Z,3.69
2022-12-26T19:54:35.129Z,3.65
2022-12-26T19:59:36.376Z,3.58
2022-12-26T20:04:37.718Z,3.57
2022-12-26T20:09:39.232Z,3.50
2022-12-26T20:14:40.648Z,3.48
2022-12-26T20:19:43.966Z,3.45
2022-12-26T20:24:47.239Z,3.42
2022-12-26T20:29:48.772Z,3.36
2022-12-26T20:34:50.269Z,3.38
2022-12-26T20:39:51.693Z,3.39
2022-12-26T20:44:53.014Z,3.39
2022-12-26T20:49:54.252Z,3.34
2022-12-26T20:54:55.468Z,3.30
2022-12-26T20:59:56.879Z,3.26
2022-12-26T21:05:00.272Z,3.21
2022-12-26T21:10:04.770Z,3.19
2022-12-26T21:15:06.268Z,3.12
2022-12-26T21:20:07.457Z,3.18
2022-12-26T21:25:08.667Z,3.14
2022-12-26T21:30:09.885Z,3.06
2022-12-26T21:35:11.082Z,3.01
2022-12-26T21:40:12.307Z,2.98
2022-12-26T21:45:13.446Z,3.00
2022-12-26T21:50:14.655Z,3.01
2022-12-26T21:55:27.904Z,3.09
2022-12-26T22:00:29.150Z,3.17
2022-12-26T22:05:30.398Z,3.23
2022-12-26T22:10:50.480Z,3.27
2022-12-26T22:16:04.125Z,3.27
2022-12-26T22:21:05.450Z,3.08
2022-12-26T22:26:06.731Z,2.96
2022-12-26T22:31:07.982Z,2.80
2022-12-26T22:36:09.275Z,2.70
2022-12-26T22:41:10.462Z,2.68
2022-12-26T22:46:11.813Z,2.74
2022-12-26T22:51:13.061Z,2.68
2022-12-26T22:56:14.256Z,2.74
2022-12-26T23:01:15.589Z,2.83
2022-12-26T23:06:16.935Z,2.80
2022-12-26T23:11:18.068Z,2.73
2022-12-26T23:16:19.366Z,2.60
2022-12-26T23:21:38.684Z,2.52
2022-12-26T23:26:39.913Z,2.16
2022-12-26T23:31:41.189Z,2.22
2022-12-26T23:36:42.433Z,2.04
2022-12-26T23:41:43.644Z,1.94
2022-12-26T23:46:44.841Z,1.83
2022-12-26T23:51:46.002Z,1.80
2022-12-26T23:56:47.188Z,1.73
